createdAt,value
2022-08-02T00:06:09.322Z,1.43
2022-08-02T00:26:15.521Z,1.53
2022-08-02T00:46:21.827Z,1.38
2022-08-02T01:06:28.173Z,1.59
2022-08-02T01:26:34.055Z,1.48
2022-08-02T01:46:40.350Z,1.72
2022-08-02T02:06:46.673Z,1.82
2022-08-02T02:26:52.809Z,1.72
2022-08-02T02:46:58.390Z,2.05
2022-08-02T03:07:04.721Z,2.10
2022-08-02T03:27:10.518Z,2.34
2022-08-02T03:47:16.352Z,2.06
2022-08-02T04:08:34.116Z,2.67
2022-08-02T04:27:51.221Z,2.39
2022-08-02T04:48:02.071Z,2.37
2022-08-02T05:07:39.629Z,2.27
2022-08-02T05:27:45.425Z,2.38
2022-08-02T05:47:51.715Z,2.04
2022-08-02T06:07:57.553Z,2.66
2022-08-02T06:28:03.339Z,1.90
2022-08-02T06:48:09.118Z,1.68
2022-08-02T07:08:15.409Z,1.91
2022-08-02T07:28:24.540Z,1.69
2022-08-02T07:48:27.034Z,1.75
2022-08-02T08:08:33.352Z,1.82
2022-08-02T08:28:39.166Z,1.63
2022-08-02T08:48:45.483Z,1.89
2022-08-02T09:08:51.757Z,1.68
2022-08-02T09:28:58.046Z,1.40
2022-08-02T09:49:04.653Z,1.53
2022-08-02T10:09:10.742Z,1.40
2022-08-02T10:29:16.546Z,1.38
2022-08-02T10:49:40.060Z,1.45
2022-08-02T11:09:32.347Z,1.60
2022-08-02T11:29:38.515Z,1.42
2022-08-02T11:49:39.791Z,1.37
2022-08-02T12:09:45.942Z,1.29
2022-08-02T12:29:58.446Z,1.36
2022-08-02T12:49:58.017Z,1.36
2022-08-02T13:10:04.376Z,1.49
2022-08-02T13:30:10.612Z,1.38
2022-08-02T13:50:19.039Z,1.36
2022-08-02T14:10:25.265Z,1.28
2022-08-02T14:30:31.026Z,1.37
2022-08-02T14:50:37.253Z,1.39
2022-08-02T15:10:43.489Z,1.33
2022-08-02T15:30:49.726Z,1.50
2022-08-02T15:50:56.066Z,1.40
2022-08-02T16:11:02.301Z,1.33
2022-08-02T16:31:11.280Z,1.35
2022-08-02T16:51:14.241Z,1.49
2022-08-02T17:11:19.815Z,1.30
2022-08-02T17:31:29.796Z,1.63
2022-08-02T17:52:14.905Z,1.12
2022-08-02T18:11:52.328Z,1.18
2022-08-02T18:31:51.176Z,1.29
2022-08-02T18:51:49.240Z,1.15
2022-08-02T19:11:55.055Z,1.79
2022-08-02T19:32:02.473Z,1.62
2022-08-02T19:52:20.834Z,1.53
2022-08-02T20:12:13.206Z,1.21
2022-08-02T20:32:18.735Z,1.39
2022-08-02T20:52:25.008Z,1.49
2022-08-02T21:12:45.375Z,1.48
2022-08-02T21:32:38.768Z,1.46
2022-08-02T21:52:52.380Z,1.40
2022-08-02T22:12:50.825Z,1.52
2022-08-02T22:32:56.675Z,1.85
2022-08-02T22:53:03.195Z,1.62
2022-08-02T23:13:09.171Z,1.68
2022-08-02T23:33:15.432Z,1.69
2022-08-02T23:53:21.207Z,1.68
